createdAt,value
2022-11-02T00:01:29.851Z,10.73
2022-11-02T00:06:31.675Z,10.60
2022-11-02T00:11:33.506Z,10.61
2022-11-02T00:16:38.245Z,10.67
2022-11-02T00:21:40.712Z,10.79
2022-11-02T00:26:42.356Z,10.88
2022-11-02T00:31:44.105Z,10.86
2022-11-02T00:36:49.597Z,10.80
2022-11-02T00:41:54.758Z,10.84
2022-11-02T00:46:56.624Z,10.87
2022-11-02T00:51:59.537Z,10.74
2022-11-02T00:57:03.480Z,10.49
2022-11-02T01:02:05.746Z,10.46
2022-11-02T01:07:08.219Z,10.41
2022-11-02T01:12:11.489Z,10.46
2022-11-02T01:17:13.195Z,10.37
2022-11-02T01:22:15.956Z,10.45
2022-11-02T01:27:17.673Z,10.50
2022-11-02T01:32:19.807Z,10.54
2022-11-02T01:37:21.921Z,10.51
2022-11-02T01:42:26.565Z,10.49
2022-11-02T01:47:37.828Z,10.51
2022-11-02T01:52:40.261Z,10.49
2022-11-02T01:57:45.678Z,10.44
2022-11-02T02:02:54.402Z,10.41
2022-11-02T02:07:56.489Z,10.41
2022-11-02T02:12:58.394Z,10.15
2022-11-02T02:18:20.550Z,10.13
2022-11-02T02:23:46.448Z,10.10
2022-11-02T02:29:21.138Z,10.08
2022-11-02T02:34:30.573Z,10.05
2022-11-02T02:39:42.997Z,9.94
2022-11-02T02:45:17.850Z,10.01
2022-11-02T02:50:27.556Z,9.69
2022-11-02T02:55:34.373Z,9.59
2022-11-02T03:00:36.792Z,9.57
2022-11-02T03:05:38.947Z,9.51
2022-11-02T03:11:13.325Z,9.47
2022-11-02T03:16:32.489Z,9.29
2022-11-02T03:21:42.196Z,9.31
2022-11-02T03:26:51.075Z,9.35
2022-11-02T03:32:09.134Z,9.39
2022-11-02T03:37:11.158Z,9.35
2022-11-02T03:42:18.862Z,9.33
2022-11-02T03:47:23.867Z,9.23
2022-11-02T03:52:30.195Z,9.28
2022-11-02T03:57:43.325Z,9.41
2022-11-02T04:02:48.904Z,9.43
2022-11-02T04:08:12.107Z,9.41
2022-11-02T04:13:32.591Z,9.33
2022-11-02T04:18:53.382Z,8.97
2022-11-02T04:24:15.194Z,8.72
2022-11-02T04:29:18.844Z,8.66
2022-11-02T04:34:21.228Z,8.86
2022-11-02T04:39:22.968Z,8.78
2022-11-02T04:44:27.917Z,8.95
2022-11-02T04:49:40.294Z,9.05
2022-11-02T04:54:46.275Z,8.98
2022-11-02T04:59:48.381Z,8.94
2022-11-02T05:04:50.383Z,9.01
2022-11-02T05:09:53.094Z,9.09
2022-11-02T05:14:54.865Z,8.97
2022-11-02T05:19:57.152Z,8.87
2022-11-02T05:24:59.145Z,8.89
2022-11-02T05:30:01.092Z,8.89
2022-11-02T05:35:04.681Z,8.99
2022-11-02T05:40:08.808Z,8.94
2022-11-02T05:45:11.912Z,8.71
2022-11-02T05:50:13.727Z,8.66
2022-11-02T05:55:15.531Z,8.72
2022-11-02T06:00:17.459Z,8.71
2022-11-02T06:05:19.185Z,8.66
2022-11-02T06:10:20.875Z,8.54
2022-11-02T06:15:22.631Z,8.49
2022-11-02T06:20:24.501Z,8.44
2022-11-02T06:25:26.428Z,8.46
2022-11-02T06:30:28.159Z,8.47
2022-11-02T06:35:29.817Z,8.41
2022-11-02T06:40:31.702Z,8.39
2022-11-02T06:45:33.457Z,8.47
2022-11-02T06:50:35.128Z,8.49
2022-11-02T06:55:36.836Z,8.33
2022-11-02T07:00:38.680Z,8.33
2022-11-02T07:05:40.496Z,8.46
2022-11-02T07:10:42.114Z,8.65
2022-11-02T07:15:43.900Z,8.82
2022-11-02T07:20:45.670Z,8.96
2022-11-02T07:25:47.370Z,9.08
2022-11-02T07:30:49.983Z,9.25
2022-11-02T07:35:51.930Z,9.39
2022-11-02T07:40:53.645Z,9.51
2022-11-02T07:45:56.116Z,9.52
2022-11-02T07:51:00.873Z,9.63
2022-11-02T07:56:04.200Z,9.80
2022-11-02T08:01:06.069Z,10.03
2022-11-02T08:06:08.059Z,10.17
2022-11-02T08:11:10.048Z,10.35
2022-11-02T08:16:11.887Z,10.55
2022-11-02T08:21:13.514Z,10.80
2022-11-02T08:26:15.274Z,11.01
2022-11-02T08:31:17.758Z,11.26
2022-11-02T08:36:19.480Z,11.47
2022-11-02T08:41:22.309Z,11.64
2022-11-02T08:46:24.683Z,11.77
2022-11-02T08:51:26.471Z,11.98
2022-11-02T08:56:28.601Z,12.20
2022-11-02T09:01:30.836Z,12.38
2022-11-02T09:06:32.854Z,12.49
2022-11-02T09:11:34.804Z,12.75
2022-11-02T09:16:41.206Z,12.91
2022-11-02T09:21:43.930Z,12.96
2022-11-02T09:26:45.784Z,12.95
2022-11-02T09:31:48.936Z,12.98
2022-11-02T09:36:50.832Z,13.03
2022-11-02T09:42:09.500Z,13.16
2022-11-02T09:48:10.857Z,13.22
2022-11-02T09:52:38.347Z,13.30
2022-11-02T09:57:43.984Z,13.54
2022-11-02T10:03:07.162Z,13.62
2022-11-02T10:08:36.611Z,13.77
2022-11-02T10:13:52.653Z,13.97
2022-11-02T10:18:58.362Z,14.14
2022-11-02T10:24:18.663Z,14.18
2022-11-02T10:29:38.839Z,14.30
2022-11-02T10:34:42.247Z,14.25
2022-11-02T10:40:02.439Z,14.38
2022-11-02T10:45:27.469Z,14.42
2022-11-02T10:50:59.434Z,14.38
2022-11-02T10:56:16.317Z,14.45
2022-11-02T11:01:18.101Z,14.57
2022-11-02T11:06:20.551Z,14.63
2022-11-02T11:11:27.232Z,14.78
2022-11-02T11:16:42.350Z,14.75
2022-11-02T11:21:44.530Z,14.65
2022-11-02T11:26:46.501Z,14.57
2022-11-02T11:31:48.639Z,14.54
2022-11-02T11:36:50.511Z,14.58
2022-11-02T11:41:52.502Z,14.67
2022-11-02T11:46:57.787Z,14.78
2022-11-02T11:52:01.842Z,14.74
2022-11-02T11:57:25.365Z,14.80
2022-11-02T12:02:41.060Z,14.83
2022-11-02T12:08:07.766Z,14.75
2022-11-02T12:13:43.201Z,14.79
2022-11-02T12:18:50.347Z,14.83
2022-11-02T12:24:13.623Z,14.90
2022-11-02T12:29:47.602Z,14.92
2022-11-02T12:35:23.098Z,15.09
2022-11-02T12:40:43.325Z,15.08
2022-11-02T12:45:56.999Z,15.12
2022-11-02T12:51:21.956Z,15.21
2022-11-02T12:56:42.806Z,15.14
2022-11-02T13:01:47.409Z,15.12
2022-11-02T13:06:53.944Z,15.17
2022-11-02T13:12:14.633Z,15.25
2022-11-02T13:17:49.973Z,15.32
2022-11-02T13:23:04.617Z,15.26
2022-11-02T13:28:30.912Z,15.22
2022-11-02T13:33:54.793Z,15.20
2022-11-02T13:39:06.323Z,15.12
2022-11-02T13:44:34.943Z,15.30
2022-11-02T13:49:41.209Z,15.56
2022-11-02T13:54:52.124Z,15.61
2022-11-02T13:59:54.311Z,15.66
2022-11-02T14:04:56.288Z,15.69
2022-11-02T14:10:07.260Z,15.73
2022-11-02T14:15:14.817Z,15.64
2022-11-02T14:20:35.910Z,15.52
2022-11-02T14:25:54.975Z,15.43
2022-11-02T14:31:02.057Z,15.33
2022-11-02T14:36:09.690Z,15.30
2022-11-02T14:41:44.115Z,15.25
2022-11-02T14:47:07.783Z,15.21
2022-11-02T14:52:15.641Z,15.18
2022-11-02T14:57:17.235Z,15.12
2022-11-02T15:02:27.925Z,15.07
2022-11-02T15:07:29.535Z,15.04
2022-11-02T15:12:41.012Z,14.78
2022-11-02T15:17:42.648Z,14.49
2022-11-02T15:22:48.685Z,14.29
2022-11-02T15:27:53.622Z,13.96
2022-11-02T15:33:06.147Z,13.91
2022-11-02T15:38:17.357Z,13.77
2022-11-02T15:43:50.124Z,13.44
2022-11-02T15:49:00.174Z,13.21
2022-11-02T15:54:20.127Z,13.07
2022-11-02T15:59:24.943Z,13.00
2022-11-02T16:04:27.822Z,12.87
2022-11-02T16:09:32.988Z,12.77
2022-11-02T16:14:34.679Z,12.44
2022-11-02T16:19:36.405Z,12.30
2022-11-02T16:24:47.050Z,12.14
2022-11-02T16:29:50.464Z,12.09
2022-11-02T16:34:52.256Z,11.93
2022-11-02T16:39:54.240Z,11.78
2022-11-02T16:45:00.737Z,11.72
2022-11-02T16:50:03.891Z,11.64
2022-11-02T16:55:33.765Z,11.52
2022-11-02T17:00:36.126Z,11.35
2022-11-02T17:05:42.694Z,11.27
2022-11-02T17:10:44.811Z,11.10
2022-11-02T17:15:51.424Z,10.91
2022-11-02T17:21:29.210Z,10.80
2022-11-02T17:26:37.334Z,10.83
2022-11-02T17:31:41.211Z,10.87
2022-11-02T17:36:44.824Z,10.78
2022-11-02T17:42:11.904Z,10.68
2022-11-02T17:47:16.600Z,10.62
2022-11-02T17:52:18.367Z,10.29
2022-11-02T17:57:20.851Z,10.26
2022-11-02T18:02:22.809Z,10.35
2022-11-02T18:07:24.489Z,10.36
2022-11-02T18:12:26.178Z,10.37
2022-11-02T18:17:31.086Z,10.25
2022-11-02T18:22:36.453Z,10.05
2022-11-02T18:27:38.500Z,10.04
2022-11-02T18:32:41.818Z,9.93
2022-11-02T18:37:43.816Z,9.80
2022-11-02T18:42:46.228Z,9.42
2022-11-02T18:47:47.853Z,9.48
2022-11-02T18:52:50.731Z,9.49
2022-11-02T18:57:52.418Z,9.47
2022-11-02T19:02:54.124Z,9.35
2022-11-02T19:08:18.424Z,9.41
2022-11-02T19:13:20.139Z,9.48
2022-11-02T19:18:21.816Z,9.51
2022-11-02T19:23:23.484Z,9.61
2022-11-02T19:28:25.158Z,9.58
2022-11-02T19:33:29.076Z,9.39
2022-11-02T19:38:36.222Z,9.23
2022-11-02T19:43:39.207Z,9.16
2022-11-02T19:48:40.911Z,9.07
2022-11-02T19:53:44.839Z,9.10
2022-11-02T19:58:49.367Z,9.17
2022-11-02T20:03:51.544Z,9.15
2022-11-02T20:08:57.266Z,9.16
2022-11-02T20:14:01.199Z,9.20
2022-11-02T20:19:03.046Z,9.23
2022-11-02T20:24:05.414Z,9.18
2022-11-02T20:29:09.529Z,9.16
2022-11-02T20:34:13.324Z,9.15
2022-11-02T20:39:15.637Z,9.09
2022-11-02T20:44:19.147Z,8.85
2022-11-02T20:49:44.274Z,8.85
2022-11-02T20:54:44.233Z,8.62
2022-11-02T20:59:45.983Z,8.63
2022-11-02T21:04:47.687Z,8.64
2022-11-02T21:09:49.588Z,8.53
2022-11-02T21:14:51.233Z,8.52
2022-11-02T21:19:58.213Z,8.54
2022-11-02T21:25:11.477Z,8.54
2022-11-02T21:30:13.838Z,8.50
2022-11-02T21:35:15.586Z,8.48
2022-11-02T21:40:17.243Z,8.43
2022-11-02T21:45:20.072Z,8.41
2022-11-02T21:50:24.540Z,8.16
2022-11-02T21:55:26.159Z,8.08
2022-11-02T22:00:47.935Z,7.77
2022-11-02T22:05:55.672Z,7.76
2022-11-02T22:10:57.531Z,7.87
2022-11-02T22:16:07.589Z,7.96
2022-11-02T22:21:10.600Z,7.93
2022-11-02T22:26:14.346Z,7.89
2022-11-02T22:31:25.459Z,7.75
2022-11-02T22:36:29.724Z,7.65
2022-11-02T22:41:33.816Z,7.59
2022-11-02T22:46:39.075Z,7.56
2022-11-02T22:51:43.588Z,7.58
2022-11-02T22:56:47.666Z,7.45
2022-11-02T23:01:51.208Z,7.43
2022-11-02T23:06:53.025Z,7.37
2022-11-02T23:11:54.706Z,7.42
2022-11-02T23:16:56.692Z,7.31
2022-11-02T23:22:21.684Z,7.35
2022-11-02T23:27:23.801Z,7.39
2022-11-02T23:32:28.216Z,7.03
2022-11-02T23:37:30.535Z,7.07
2022-11-02T23:42:32.390Z,6.75
2022-11-02T23:47:52.475Z,6.86
2022-11-02T23:53:13.093Z,6.98
2022-11-02T23:58:14.849Z,6.93
